Skip Navigation Links Skip Navigation Links

Current Weather

Agadez, Niger

For information only: do not use for flight planning or navigation.
Latest weather
Observation time Tuesday, October 19, 2021 10:00 AM WAT
Local time Tuesday, October 19, 2021 10:42 AM WAT
Flight conditions Marginal Visual Meteorological Conditions
Winds
Wind direction East (100°)
Wind speed 16 mph
Visibility 3.7 mi.
Sky condition
Ceiling unlimited
Temperature 97°F
Dewpoint 43°F
Altimeter 29.94 in.Hg
Derived measurements
Relative humidity 16%
Heat index 97°F
Density altitude 2995 ft.
METAR DRZA 190900Z 10014KT 6000 NSC 36/06 Q1014

Settings

Location code

InnerDrive.Weather 4.0.6770.0 Release CLR 4.0.30319.42000
Copyright ©2018 Inner Drive Technology. All rights reserved. Portions Copyright ©1986-2018 David Braverman.

Find weather

Site navigation


Skip Navigation Links

Place info

Page info

PayPal - The safer, easier way to pay online!

Return home.

Copyright ©2021 Inner Drive Technology. Purveyors of fine, hand-crafted computer software. Page printed 2021-10-19T09:42:49 UTC.